Time;durP1;ratioP1;P1;durP2;ratioP2;P2;SDS_P1;SDS_P2;PMS_P1;PMS_P2;Temp;Humidity;BMP_temperature;BMP_pressure;BME280_temperature;BME280_humidity;BME280_pressure;Samples;Min_cycle;Max_cycle;Signal;HPM_P1;HPM_P2
2023/09/24 00:01:08;;;;;;;0.40;0.40;;;13.10;99.90;;;;;;4435721;32;20161;-59
2023/09/24 00:03:34;;;;;;;0.85;0.60;;;13.20;99.90;;;;;;4433644;32;20115;-61
2023/09/24 00:06:05;;;;;;;0.80;0.40;;;13.30;99.90;;;;;;4436284;32;20194;-59
2023/09/24 00:08:31;;;;;;;0.35;0.30;;;13.20;99.90;;;;;;4434937;32;20085;-59
2023/09/24 00:10:56;;;;;;;0.30;0.30;;;13.10;99.90;;;;;;4436314;32;20085;-60
2023/09/24 00:13:22;;;;;;;0.43;0.43;;;13.10;99.90;;;;;;4436957;32;20555;-60
2023/09/24 00:15:50;;;;;;;0.40;0.40;;;13.00;99.90;;;;;;4437199;32;20567;-61
2023/09/24 00:18:17;;;;;;;0.65;0.43;;;12.80;99.90;;;;;;4436819;32;20206;-60
2023/09/24 00:20:43;;;;;;;0.52;0.52;;;12.70;99.90;;;;;;4436390;32;20196;-61
2023/09/24 00:23:10;;;;;;;1.02;0.93;;;12.70;99.90;;;;;;4435852;32;20078;-58
2023/09/24 00:25:37;;;;;;;0.30;0.30;;;12.80;99.90;;;;;;4436102;32;20662;-61
2023/09/24 00:28:03;;;;;;;6.12;0.40;;;12.80;99.90;;;;;;4434319;32;20061;-59
2023/09/24 00:30:28;;;;;;;0.40;0.40;;;12.70;99.90;;;;;;4433986;32;20203;-60
2023/09/24 00:32:54;;;;;;;0.40;0.40;;;12.70;99.90;;;;;;4437850;32;20428;-59
2023/09/24 00:35:19;;;;;;;0.30;0.30;;;12.70;99.90;;;;;;4436020;32;20528;-59
2023/09/24 00:37:45;;;;;;;1.00;0.62;;;12.60;99.90;;;;;;4433882;32;20088;-60
2023/09/24 00:40:11;;;;;;;0.40;0.40;;;12.50;99.90;;;;;;4435479;32;20092;-59
2023/09/24 00:42:37;;;;;;;0.32;0.32;;;12.50;99.90;;;;;;4435342;32;20085;-59
2023/09/24 00:45:06;;;;;;;0.50;0.50;;;12.50;99.90;;;;;;4436918;32;20073;-60
2023/09/24 00:47:32;;;;;;;0.20;0.20;;;12.50;99.90;;;;;;4434326;32;20081;-59
2023/09/24 00:49:58;;;;;;;0.20;0.20;;;12.50;99.90;;;;;;4439464;32;20516;-59
2023/09/24 00:52:25;;;;;;;6.10;2.03;;;12.50;99.90;;;;;;4438180;32;20104;-61
2023/09/24 00:54:51;;;;;;;0.30;0.30;;;12.50;99.90;;;;;;4438132;32;20065;-61
2023/09/24 00:57:17;;;;;;;0.90;0.52;;;12.40;99.90;;;;;;4437245;32;20069;-58
2023/09/24 00:59:46;;;;;;;0.30;0.30;;;12.40;99.90;;;;;;4437549;32;20203;-59
2023/09/24 01:02:12;;;;;;;0.20;0.20;;;12.30;99.90;;;;;;4435211;32;20078;-60
2023/09/24 01:04:38;;;;;;;0.50;0.50;;;12.20;99.90;;;;;;4437375;32;20100;-59
2023/09/24 01:07:03;;;;;;;0.37;0.37;;;12.20;99.90;;;;;;4435620;32;20081;-62
2023/09/24 01:09:29;;;;;;;1.85;1.00;;;12.30;99.90;;;;;;4436527;32;20064;-61
2023/09/24 01:11:54;;;;;;;0.30;0.30;;;12.30;99.90;;;;;;4436815;32;20085;-62
2023/09/24 01:14:20;;;;;;;0.30;0.30;;;12.20;99.90;;;;;;4436415;32;20836;-62
2023/09/24 01:16:45;;;;;;;0.40;0.40;;;12.10;99.90;;;;;;4437241;32;20119;-62
2023/09/24 01:19:11;;;;;;;0.30;0.30;;;12.10;99.90;;;;;;4431856;32;20339;-60
2023/09/24 01:21:37;;;;;;;0.47;0.47;;;12.20;99.90;;;;;;4437491;32;20078;-61
2023/09/24 01:24:03;;;;;;;0.30;0.30;;;12.30;99.90;;;;;;4436171;32;20541;-61
2023/09/24 01:26:29;;;;;;;0.22;0.22;;;12.40;99.90;;;;;;4432145;32;20145;-61
2023/09/24 01:28:54;;;;;;;0.40;0.40;;;12.40;99.90;;;;;;4427807;32;20095;-59
2023/09/24 01:31:20;;;;;;;1.48;0.50;;;12.30;99.90;;;;;;4431581;32;20088;-60
2023/09/24 01:33:47;;;;;;;0.45;0.45;;;12.30;99.90;;;;;;4432412;32;21259;-62
2023/09/24 01:36:13;;;;;;;0.30;0.30;;;12.30;99.90;;;;;;4428921;32;20134;-61
2023/09/24 01:38:41;;;;;;;0.40;0.40;;;12.30;99.90;;;;;;4435309;32;20523;-59
2023/09/24 01:41:10;;;;;;;0.45;0.40;;;12.20;99.90;;;;;;4433094;32;20135;-63
2023/09/24 01:43:37;;;;;;;0.28;0.28;;;12.20;99.90;;;;;;4437114;32;20903;-62
2023/09/24 01:46:06;;;;;;;0.30;0.30;;;12.30;99.90;;;;;;4436038;32;20080;-60
2023/09/24 01:48:33;;;;;;;0.60;0.60;;;12.40;99.90;;;;;;4438164;32;20480;-60
2023/09/24 01:51:07;;;;;;;0.70;0.70;;;12.40;99.90;;;;;;4439254;32;20112;-60
2023/09/24 01:53:33;;;;;;;0.43;0.40;;;12.30;99.90;;;;;;4436292;32;20101;-60
2023/09/24 01:56:00;;;;;;;0.40;0.40;;;12.30;99.90;;;;;;4437509;32;20123;-60
2023/09/24 01:58:26;;;;;;;2.83;1.42;;;12.10;99.90;;;;;;4436944;32;20076;-60
2023/09/24 02:00:52;;;;;;;0.45;0.43;;;12.00;99.90;;;;;;4438160;32;20127;-60
2023/09/24 02:03:18;;;;;;;0.50;0.50;;;12.00;99.90;;;;;;4437250;32;20409;-60
2023/09/24 02:05:44;;;;;;;1.20;1.12;;;12.00;99.90;;;;;;4438229;32;20089;-59
2023/09/24 02:08:10;;;;;;;0.30;0.30;;;12.00;99.90;;;;;;4436782;32;20566;-59
2023/09/24 02:10:40;;;;;;;0.47;0.47;;;11.90;99.90;;;;;;4436477;32;20089;-60
2023/09/24 02:13:06;;;;;;;0.25;0.25;;;11.90;99.90;;;;;;4437134;32;20145;-58
2023/09/24 02:15:32;;;;;;;0.40;0.40;;;11.90;99.90;;;;;;4438247;32;20520;-60
2023/09/24 02:17:57;;;;;;;0.30;0.30;;;11.80;99.90;;;;;;4437214;32;20068;-59
2023/09/24 02:20:24;;;;;;;0.30;0.30;;;11.70;99.90;;;;;;4438709;32;20068;-60
2023/09/24 02:22:52;;;;;;;0.50;0.50;;;11.70;99.90;;;;;;4436690;32;20066;-59
2023/09/24 02:25:19;;;;;;;0.50;0.50;;;11.80;99.90;;;;;;4436401;32;20420;-60
2023/09/24 02:27:44;;;;;;;0.50;0.50;;;11.80;99.90;;;;;;4434647;32;20065;-60
2023/09/24 02:30:13;;;;;;;0.52;0.52;;;11.90;99.90;;;;;;4434274;32;20097;-60
2023/09/24 02:32:38;;;;;;;0.20;0.20;;;11.80;99.90;;;;;;4433476;32;20074;-57
2023/09/24 02:35:05;;;;;;;0.30;0.30;;;11.80;99.90;;;;;;4435519;32;20077;-60
2023/09/24 02:37:30;;;;;;;0.20;0.20;;;11.70;99.90;;;;;;4434263;32;20088;-60
2023/09/24 02:39:56;;;;;;;0.30;0.30;;;11.70;99.90;;;;;;4438620;32;20093;-60
2023/09/24 02:42:22;;;;;;;0.60;0.60;;;11.60;99.90;;;;;;4435053;32;20143;-60
2023/09/24 02:44:48;;;;;;;0.43;0.43;;;11.60;99.90;;;;;;4435390;32;20150;-60
2023/09/24 02:47:14;;;;;;;0.52;0.52;;;11.60;99.90;;;;;;4434686;32;20072;-60
2023/09/24 02:49:40;;;;;;;0.30;0.30;;;11.60;99.90;;;;;;4435347;32;20077;-59
2023/09/24 02:52:06;;;;;;;0.32;0.32;;;11.60;99.90;;;;;;4437868;32;20225;-59
2023/09/24 02:54:32;;;;;;;0.35;0.35;;;11.50;99.90;;;;;;4435939;32;20147;-61
2023/09/24 02:56:58;;;;;;;0.30;0.30;;;11.60;99.90;;;;;;4438018;32;20077;-59
2023/09/24 02:59:24;;;;;;;0.50;0.50;;;11.60;99.90;;;;;;4436913;32;20143;-58
2023/09/24 03:01:52;;;;;;;0.30;0.30;;;11.60;99.90;;;;;;4435174;32;20528;-60
2023/09/24 03:04:17;;;;;;;0.30;0.30;;;11.60;99.90;;;;;;4437762;32;20536;-59
2023/09/24 03:06:43;;;;;;;0.37;0.37;;;11.70;99.90;;;;;;4438120;32;20085;-60
2023/09/24 03:09:10;;;;;;;2.67;0.75;;;11.60;99.90;;;;;;4437932;32;20085;-59
2023/09/24 03:11:36;;;;;;;1.75;0.40;;;11.60;99.90;;;;;;4434820;32;20081;-58
2023/09/24 03:14:02;;;;;;;0.50;0.50;;;11.80;99.90;;;;;;4436905;32;20178;-59
2023/09/24 03:16:28;;;;;;;0.30;0.30;;;11.90;99.90;;;;;;4435805;32;20084;-58
2023/09/24 03:18:54;;;;;;;1.67;0.52;;;12.00;99.90;;;;;;4437668;32;20421;-59
2023/09/24 03:21:19;;;;;;;0.50;0.50;;;12.00;99.90;;;;;;4439006;32;20061;-60
2023/09/24 03:23:45;;;;;;;0.22;0.22;;;12.00;99.90;;;;;;4436375;32;20150;-61
2023/09/24 03:26:14;;;;;;;0.40;0.40;;;11.90;99.90;;;;;;4439435;32;20096;-60
2023/09/24 03:28:40;;;;;;;0.55;0.40;;;12.00;99.90;;;;;;4435894;32;20484;-59
2023/09/24 03:31:13;;;;;;;0.30;0.30;;;12.10;99.90;;;;;;4438165;32;20458;-59
2023/09/24 03:33:39;;;;;;;0.30;0.30;;;12.20;99.90;;;;;;4437637;32;20408;-60
2023/09/24 03:36:08;;;;;;;4.70;0.77;;;12.30;99.90;;;;;;4423288;32;20143;-59
2023/09/24 03:38:34;;;;;;;0.35;0.35;;;12.30;99.90;;;;;;4436780;32;20080;-59
2023/09/24 03:41:01;;;;;;;0.73;0.73;;;12.30;99.90;;;;;;4437844;32;20074;-58
2023/09/24 03:43:27;;;;;;;0.50;0.50;;;12.30;99.90;;;;;;4437130;32;20076;-60
2023/09/24 03:45:52;;;;;;;0.40;0.40;;;12.40;99.90;;;;;;4435198;32;20560;-58
2023/09/24 03:48:19;;;;;;;0.20;0.20;;;12.20;99.90;;;;;;4437073;32;20066;-59
2023/09/24 03:50:44;;;;;;;0.40;0.40;;;12.30;99.90;;;;;;4438839;32;20092;-60
2023/09/24 03:53:09;;;;;;;0.28;0.28;;;12.40;99.90;;;;;;4436366;32;20096;-59
2023/09/24 03:55:35;;;;;;;0.40;0.40;;;12.40;99.90;;;;;;4437904;32;20108;-59
2023/09/24 03:58:01;;;;;;;0.52;0.52;;;12.40;99.90;;;;;;4437357;32;20077;-59
2023/09/24 04:02:55;;;;;;;0.30;0.30;;;12.60;99.90;;;;;;4436142;32;20153;-58
2023/09/24 04:05:22;;;;;;;0.73;0.73;;;12.60;99.90;;;;;;4435997;32;20154;-59
2023/09/24 04:07:50;;;;;;;3.12;0.37;;;12.60;99.90;;;;;;4424335;32;20463;-59
2023/09/24 04:10:16;;;;;;;0.30;0.30;;;12.50;99.90;;;;;;4440355;32;20105;-58
2023/09/24 04:12:43;;;;;;;0.52;0.52;;;12.50;99.90;;;;;;4418625;32;20073;-59
2023/09/24 04:15:09;;;;;;;0.30;0.30;;;12.50;99.90;;;;;;4422522;32;20077;-60
2023/09/24 04:17:42;;;;;;;0.30;0.30;;;12.50;99.90;;;;;;4437399;32;20045;-59
2023/09/24 04:20:12;;;;;;;0.70;0.70;;;12.50;99.90;;;;;;4436838;32;20081;-60
2023/09/24 04:22:38;;;;;;;0.52;0.52;;;12.50;99.90;;;;;;4438000;32;20052;-58
2023/09/24 04:25:03;;;;;;;3.33;0.82;;;12.50;99.90;;;;;;4439557;32;20096;-59
2023/09/24 04:27:29;;;;;;;0.45;0.40;;;12.60;99.90;;;;;;4440919;32;20080;-60
2023/09/24 04:29:55;;;;;;;0.62;0.62;;;12.70;99.90;;;;;;4437183;32;20065;-58
2023/09/24 04:32:20;;;;;;;0.40;0.40;;;12.80;99.90;;;;;;4440371;32;20135;-59
2023/09/24 04:34:46;;;;;;;0.50;0.50;;;12.80;99.90;;;;;;4437316;32;20133;-58
2023/09/24 04:37:13;;;;;;;0.50;0.47;;;12.70;99.90;;;;;;4441055;32;20072;-62
2023/09/24 04:39:38;;;;;;;0.30;0.30;;;12.70;99.90;;;;;;4438726;32;20756;-60
2023/09/24 04:42:06;;;;;;;0.28;0.28;;;12.80;99.90;;;;;;4440390;32;20082;-61
2023/09/24 04:44:31;;;;;;;0.30;0.30;;;12.80;99.90;;;;;;4439898;32;20093;-62
2023/09/24 04:46:57;;;;;;;3.53;0.57;;;12.80;99.90;;;;;;4439038;32;20509;-58
2023/09/24 04:49:22;;;;;;;0.45;0.45;;;12.70;99.90;;;;;;4440449;32;20085;-60
2023/09/24 04:51:50;;;;;;;0.40;0.40;;;12.70;99.90;;;;;;4439937;32;20065;-61
2023/09/24 04:54:15;;;;;;;0.40;0.40;;;12.70;99.90;;;;;;4438809;32;20114;-59
2023/09/24 04:56:41;;;;;;;0.40;0.40;;;12.90;99.90;;;;;;4437901;32;20558;-60
2023/09/24 04:59:06;;;;;;;1.75;0.75;;;13.00;99.90;;;;;;4439236;32;20228;-60
2023/09/24 05:01:32;;;;;;;0.77;0.77;;;13.10;99.90;;;;;;4440743;32;20113;-60
2023/09/24 05:03:57;;;;;;;0.57;0.43;;;13.20;99.90;;;;;;4440104;32;20116;-57
2023/09/24 05:06:24;;;;;;;0.30;0.30;;;13.20;99.90;;;;;;4440466;32;20109;-59
2023/09/24 05:08:49;;;;;;;0.37;0.37;;;13.20;99.90;;;;;;4438846;32;20084;-60
2023/09/24 05:11:15;;;;;;;0.62;0.55;;;13.20;99.90;;;;;;4439634;32;20061;-59
2023/09/24 05:13:40;;;;;;;0.30;0.30;;;13.20;99.90;;;;;;4437908;32;20514;-59
2023/09/24 05:16:06;;;;;;;1.02;0.60;;;13.10;99.90;;;;;;4439509;32;20073;-59
2023/09/24 05:18:32;;;;;;;0.30;0.30;;;13.10;99.90;;;;;;4438687;32;20077;-58
2023/09/24 05:20:57;;;;;;;0.45;0.45;;;13.20;99.90;;;;;;4439477;32;20077;-59
2023/09/24 05:23:25;;;;;;;0.37;0.37;;;13.20;99.90;;;;;;4437719;32;20446;-59
2023/09/24 05:25:51;;;;;;;0.50;0.50;;;13.20;99.90;;;;;;4436194;32;20135;-60
2023/09/24 05:28:18;;;;;;;0.30;0.30;;;13.30;99.90;;;;;;4435279;32;20077;-61
2023/09/24 05:30:51;;;;;;;0.80;0.60;;;13.30;99.90;;;;;;4423679;32;20120;-59
2023/09/24 05:33:17;;;;;;;0.82;0.50;;;13.40;99.90;;;;;;4437082;32;20086;-60
2023/09/24 05:35:42;;;;;;;0.60;0.30;;;13.50;99.90;;;;;;4436054;32;20089;-59
2023/09/24 05:38:08;;;;;;;0.55;0.55;;;13.60;99.90;;;;;;4436247;32;20069;-57
2023/09/24 05:40:38;;;;;;;0.37;0.37;;;13.60;99.90;;;;;;4437733;32;20581;-61
2023/09/24 05:43:03;;;;;;;1.35;0.73;;;13.70;99.90;;;;;;4439847;32;20513;-59
2023/09/24 05:45:29;;;;;;;5.50;1.25;;;13.60;99.90;;;;;;4438204;32;20756;-59
2023/09/24 05:47:55;;;;;;;1.37;0.75;;;13.60;99.90;;;;;;4441377;32;20104;-59
2023/09/24 05:50:21;;;;;;;0.57;0.50;;;13.60;99.90;;;;;;4439893;32;20068;-60
2023/09/24 05:52:46;;;;;;;0.93;0.85;;;13.60;99.90;;;;;;4441332;32;20231;-60
2023/09/24 05:55:12;;;;;;;0.40;0.40;;;13.70;99.90;;;;;;4439572;32;20093;-60
2023/09/24 05:57:37;;;;;;;0.20;0.20;;;13.70;99.90;;;;;;4436456;32;20101;-60
2023/09/24 06:00:04;;;;;;;0.65;0.65;;;13.60;99.90;;;;;;4436255;32;20060;-58
2023/09/24 06:02:30;;;;;;;2.25;0.88;;;13.70;99.90;;;;;;4438057;32;20474;-59
2023/09/24 06:04:55;;;;;;;0.88;0.88;;;13.80;99.90;;;;;;4436457;32;20089;-60
2023/09/24 06:07:21;;;;;;;0.52;0.30;;;13.90;99.90;;;;;;4437375;32;20110;-58
2023/09/24 06:09:47;;;;;;;0.30;0.30;;;13.90;99.90;;;;;;4438276;32;20105;-60
2023/09/24 06:12:13;;;;;;;0.37;0.37;;;13.80;99.90;;;;;;4439798;32;20065;-59
2023/09/24 06:14:39;;;;;;;0.50;0.45;;;13.80;99.90;;;;;;4437192;32;20077;-58
2023/09/24 06:17:04;;;;;;;0.50;0.50;;;13.80;99.90;;;;;;4439589;32;20097;-60
2023/09/24 06:19:30;;;;;;;0.98;0.82;;;13.80;99.90;;;;;;4436238;32;20081;-60
2023/09/24 06:21:56;;;;;;;1.80;0.77;;;13.90;99.90;;;;;;4438684;32;20112;-60
2023/09/24 06:24:22;;;;;;;0.40;0.35;;;13.90;99.90;;;;;;4439346;32;20188;-60
2023/09/24 06:26:47;;;;;;;0.28;0.28;;;13.90;99.90;;;;;;4440158;32;20113;-62
2023/09/24 06:29:14;;;;;;;0.45;0.45;;;13.90;99.90;;;;;;4435841;32;20078;-62
2023/09/24 06:31:39;;;;;;;0.30;0.30;;;13.90;99.90;;;;;;4435270;32;20516;-61
2023/09/24 06:34:05;;;;;;;0.40;0.40;;;13.90;99.90;;;;;;4436849;32;20073;-61
2023/09/24 06:36:31;;;;;;;0.77;0.50;;;13.90;99.90;;;;;;4438343;32;20072;-61
2023/09/24 06:38:56;;;;;;;0.50;0.50;;;14.00;99.90;;;;;;4438233;32;20065;-62
2023/09/24 06:41:22;;;;;;;0.45;0.40;;;14.00;99.90;;;;;;4438258;32;20118;-62
2023/09/24 06:43:48;;;;;;;0.55;0.55;;;14.00;99.90;;;;;;4437456;32;20144;-62
2023/09/24 06:46:13;;;;;;;0.40;0.40;;;14.00;99.90;;;;;;4439303;32;20097;-61
2023/09/24 06:48:39;;;;;;;2.17;0.62;;;14.10;99.90;;;;;;4439230;32;20408;-62
2023/09/24 06:51:09;;;;;;;1.45;0.82;;;14.00;99.90;;;;;;4439003;32;20065;-62
2023/09/24 06:53:36;;;;;;;0.20;0.20;;;14.00;99.90;;;;;;4437829;32;20073;-61
2023/09/24 06:56:05;;;;;;;0.55;0.55;;;14.10;99.90;;;;;;4424738;32;20110;-60
2023/09/24 06:58:32;;;;;;;1.15;0.57;;;14.00;99.90;;;;;;4437216;32;20129;-57
2023/09/24 07:01:00;;;;;;;0.40;0.40;;;14.10;99.90;;;;;;4438022;32;20104;-60
2023/09/24 07:03:25;;;;;;;0.30;0.30;;;14.10;99.90;;;;;;4436786;32;20587;-59
2023/09/24 07:05:51;;;;;;;0.30;0.30;;;14.20;99.90;;;;;;4436363;32;20130;-60
2023/09/24 07:08:17;;;;;;;1.95;0.60;;;14.20;99.90;;;;;;4437542;32;20060;-60
2023/09/24 07:10:42;;;;;;;0.40;0.40;;;14.20;99.90;;;;;;4436875;32;20440;-60
2023/09/24 07:13:08;;;;;;;0.20;0.20;;;14.20;99.90;;;;;;4439086;32;20065;-60
2023/09/24 07:15:34;;;;;;;0.20;0.20;;;14.30;99.90;;;;;;4436530;32;20172;-62
2023/09/24 07:17:59;;;;;;;0.62;0.62;;;14.30;99.90;;;;;;4438012;32;20088;-60
2023/09/24 07:20:24;;;;;;;0.32;0.32;;;14.30;99.90;;;;;;4436804;32;20097;-61
2023/09/24 07:22:50;;;;;;;0.65;0.40;;;14.30;99.90;;;;;;4437990;32;20563;-61
2023/09/24 07:25:16;;;;;;;0.20;0.20;;;14.30;99.90;;;;;;4433691;32;20068;-59
2023/09/24 07:27:41;;;;;;;1.35;0.90;;;14.40;99.90;;;;;;4434415;32;20114;-61
2023/09/24 07:30:08;;;;;;;0.60;0.60;;;14.50;99.90;;;;;;4434394;32;20096;-59
2023/09/24 07:32:34;;;;;;;0.32;0.32;;;14.60;99.90;;;;;;4436005;32;20073;-60
2023/09/24 07:35:00;;;;;;;0.40;0.40;;;14.60;99.90;;;;;;4437424;32;20446;-60
2023/09/24 07:37:25;;;;;;;0.57;0.57;;;14.70;99.90;;;;;;4435517;32;20060;-61
2023/09/24 07:39:51;;;;;;;0.30;0.30;;;14.70;99.90;;;;;;4437166;32;20535;-59
2023/09/24 07:42:17;;;;;;;0.30;0.30;;;14.60;99.90;;;;;;4437266;32;20069;-60
2023/09/24 07:44:43;;;;;;;0.40;0.40;;;14.70;99.90;;;;;;4437305;32;20069;-60
2023/09/24 07:47:08;;;;;;;0.30;0.30;;;14.70;99.90;;;;;;4434716;32;20073;-61
2023/09/24 07:49:34;;;;;;;0.22;0.22;;;14.70;99.90;;;;;;4436086;32;20154;-61
2023/09/24 07:52:00;;;;;;;0.35;0.35;;;14.80;99.90;;;;;;4435919;32;20077;-60
2023/09/24 07:54:27;;;;;;;0.20;0.20;;;14.90;99.90;;;;;;4437557;32;20081;-63
2023/09/24 07:56:53;;;;;;;0.30;0.30;;;14.80;99.90;;;;;;4436279;32;20085;-60
2023/09/24 07:59:19;;;;;;;0.37;0.37;;;14.80;99.90;;;;;;4436065;32;20072;-59
2023/09/24 08:01:45;;;;;;;0.40;0.40;;;14.90;99.90;;;;;;4435023;32;20113;-59
2023/09/24 08:04:11;;;;;;;3.95;1.95;;;15.00;99.90;;;;;;4436418;32;20073;-59
2023/09/24 08:06:37;;;;;;;0.55;0.55;;;15.10;99.90;;;;;;4437642;32;20535;-61
2023/09/24 08:09:05;;;;;;;0.50;0.50;;;15.10;99.90;;;;;;4439554;32;20073;-61
2023/09/24 08:11:31;;;;;;;0.37;0.37;;;15.10;99.90;;;;;;4435597;32;20101;-61
2023/09/24 08:13:57;;;;;;;0.32;0.32;;;15.10;99.90;;;;;;4436276;32;20097;-62
2023/09/24 08:16:22;;;;;;;0.35;0.22;;;15.20;99.90;;;;;;4436256;32;20088;-61
2023/09/24 08:18:49;;;;;;;0.62;0.47;;;15.30;99.90;;;;;;4435550;32;20077;-61
2023/09/24 08:21:15;;;;;;;0.40;0.40;;;15.30;99.90;;;;;;4436940;32;20166;-60
2023/09/24 08:23:40;;;;;;;5.07;1.00;;;15.40;99.90;;;;;;4437176;32;20077;-60
2023/09/24 08:26:06;;;;;;;0.37;0.37;;;15.50;99.90;;;;;;4435583;32;20073;-60
2023/09/24 08:28:31;;;;;;;0.25;0.25;;;15.50;99.90;;;;;;4432679;32;20138;-61
2023/09/24 08:30:57;;;;;;;0.45;0.45;;;15.60;99.90;;;;;;4433750;32;20089;-59
2023/09/24 08:33:22;;;;;;;0.40;0.40;;;15.50;99.90;;;;;;4435586;32;20065;-62
2023/09/24 08:35:48;;;;;;;0.22;0.22;;;15.50;99.90;;;;;;4437607;32;20081;-61
2023/09/24 08:38:14;;;;;;;0.30;0.30;;;15.60;99.90;;;;;;4436716;32;20088;-59
2023/09/24 08:40:40;;;;;;;2.47;0.50;;;15.70;99.90;;;;;;4436085;32;20599;-60
2023/09/24 08:43:12;;;;;;;1.17;1.05;;;15.60;99.90;;;;;;4433030;32;20088;-58
2023/09/24 08:45:38;;;;;;;0.30;0.30;;;15.70;99.90;;;;;;4433971;32;20105;-60
2023/09/24 08:48:08;;;;;;;0.40;0.40;;;15.70;99.90;;;;;;4438707;32;20093;-59
2023/09/24 08:50:37;;;;;;;0.30;0.30;;;15.80;99.90;;;;;;4436203;32;20131;-60
2023/09/24 08:53:06;;;;;;;0.30;0.30;;;15.90;99.90;;;;;;4437517;32;20077;-58
2023/09/24 08:55:32;;;;;;;0.47;0.47;;;16.10;99.90;;;;;;4435867;32;20066;-61
2023/09/24 08:57:58;;;;;;;0.22;0.22;;;16.20;99.90;;;;;;4437353;32;20089;-61
2023/09/24 09:00:24;;;;;;;0.30;0.30;;;16.20;99.90;;;;;;4436578;32;20101;-61
2023/09/24 09:02:49;;;;;;;0.30;0.30;;;16.00;99.90;;;;;;4436103;32;20093;-60
2023/09/24 09:05:25;;;;;;;0.40;0.40;;;15.90;99.90;;;;;;4435615;32;20085;-60
2023/09/24 09:07:56;;;;;;;0.30;0.30;;;15.70;99.90;;;;;;4436200;32;20088;-60
2023/09/24 09:10:25;;;;;;;0.30;0.30;;;15.70;99.90;;;;;;4436444;32;20089;-61
2023/09/24 09:12:50;;;;;;;0.70;0.70;;;15.80;99.90;;;;;;4425072;32;20089;-62
2023/09/24 09:15:17;;;;;;;0.30;0.30;;;15.90;99.90;;;;;;4437040;32;20116;-60
2023/09/24 09:17:42;;;;;;;0.43;0.43;;;16.00;99.90;;;;;;4438546;32;20084;-59
2023/09/24 09:20:08;;;;;;;0.37;0.37;;;16.10;99.90;;;;;;4439310;32;20104;-60
2023/09/24 09:22:35;;;;;;;0.35;0.35;;;16.20;99.90;;;;;;4438922;32;20073;-62
2023/09/24 09:25:04;;;;;;;0.40;0.40;;;16.30;99.90;;;;;;4438042;32;20085;-61
2023/09/24 09:27:42;;;;;;;0.30;0.30;;;16.30;99.90;;;;;;4436790;32;20077;-59
2023/09/24 09:30:15;;;;;;;0.30;0.30;;;16.40;99.90;;;;;;4436485;32;20073;-60
2023/09/24 09:32:43;;;;;;;0.35;0.35;;;16.60;99.90;;;;;;4436948;32;20122;-60
2023/09/24 09:35:09;;;;;;;0.30;0.30;;;16.70;99.90;;;;;;4440175;32;20065;-60
2023/09/24 09:37:39;;;;;;;0.20;0.20;;;16.80;99.90;;;;;;4436463;32;20381;-60
2023/09/24 09:40:06;;;;;;;0.30;0.30;;;16.90;99.90;;;;;;4436337;32;20084;-59
2023/09/24 09:42:33;;;;;;;0.40;0.40;;;17.00;99.90;;;;;;4437295;32;20093;-58
2023/09/24 09:45:04;;;;;;;4.68;1.00;;;17.10;99.90;;;;;;4437166;32;20072;-59
2023/09/24 09:47:34;;;;;;;0.40;0.40;;;17.10;99.90;;;;;;4435446;32;20813;-60
2023/09/24 09:50:00;;;;;;;2.35;0.50;;;17.10;99.90;;;;;;4435630;32;20092;-60
2023/09/24 09:52:32;;;;;;;0.30;0.30;;;17.20;99.90;;;;;;4435549;32;20078;-61
2023/09/24 09:55:01;;;;;;;0.40;0.40;;;17.10;99.90;;;;;;4437752;32;20123;-60
2023/09/24 09:57:32;;;;;;;0.32;0.32;;;17.20;99.90;;;;;;4436597;32;20836;-61
2023/09/24 09:59:58;;;;;;;1.10;0.55;;;17.20;99.90;;;;;;4434764;32;20069;-61
2023/09/24 10:02:25;;;;;;;0.35;0.35;;;17.30;99.90;;;;;;4436169;32;20092;-60
2023/09/24 10:04:51;;;;;;;0.40;0.40;;;17.40;99.90;;;;;;4436711;32;20085;-60
2023/09/24 10:07:17;;;;;;;0.40;0.40;;;17.40;99.90;;;;;;4438110;32;20081;-60
2023/09/24 10:09:42;;;;;;;0.30;0.30;;;17.50;99.90;;;;;;4436759;32;20081;-60
2023/09/24 10:12:08;;;;;;;0.30;0.30;;;17.60;99.90;;;;;;4436811;32;20068;-60
2023/09/24 10:14:37;;;;;;;0.60;0.60;;;17.70;99.90;;;;;;4439107;32;20072;-60
2023/09/24 10:17:23;;;;;;;0.30;0.30;;;17.80;99.90;;;;;;4424487;32;20144;-60
2023/09/24 10:19:52;;;;;;;0.30;0.30;;;17.90;99.90;;;;;;4435590;32;20061;-59
2023/09/24 10:22:27;;;;;;;0.45;0.45;;;17.90;99.90;;;;;;4423429;32;20096;-62
2023/09/24 10:24:53;;;;;;;0.40;0.40;;;17.80;99.90;;;;;;4436713;32;20147;-61
2023/09/24 10:27:29;;;;;;;0.40;0.40;;;17.90;99.90;;;;;;4438825;32;20065;-60
2023/09/24 10:29:58;;;;;;;0.20;0.20;;;18.00;99.90;;;;;;4436857;32;20516;-62
2023/09/24 10:32:25;;;;;;;1.05;0.80;;;17.80;99.90;;;;;;4438500;32;20093;-60
2023/09/24 10:34:54;;;;;;;0.25;0.25;;;17.80;99.90;;;;;;4437995;32;20065;-60
2023/09/24 10:37:22;;;;;;;1.35;0.57;;;17.80;99.90;;;;;;4439811;32;20069;-60
2023/09/24 10:40:05;;;;;;;0.40;0.40;;;17.90;99.90;;;;;;4437536;32;20101;-59
2023/09/24 10:42:33;;;;;;;0.30;0.30;;;18.10;99.90;;;;;;4437284;32;20750;-60
2023/09/24 10:45:10;;;;;;;0.30;0.30;;;18.40;99.90;;;;;;4437787;32;20519;-60
2023/09/24 10:47:40;;;;;;;0.30;0.30;;;18.50;99.90;;;;;;4436938;32;20136;-59
2023/09/24 10:50:09;;;;;;;0.35;0.35;;;18.70;99.90;;;;;;4436655;32;20069;-59
2023/09/24 10:52:57;;;;;;;0.40;0.40;;;18.80;99.90;;;;;;4438047;32;20128;-60
2023/09/24 10:55:36;;;;;;;2.33;0.68;;;18.90;99.90;;;;;;4437478;32;20134;-60
2023/09/24 10:58:17;;;;;;;0.28;0.28;;;18.90;99.90;;;;;;4437358;32;20189;-61
2023/09/24 11:00:49;;;;;;;0.50;0.50;;;19.00;99.90;;;;;;4437472;32;20465;-59
2023/09/24 11:03:15;;;;;;;0.25;0.25;;;18.80;99.90;;;;;;4435689;32;20077;-59
2023/09/24 11:05:43;;;;;;;0.20;0.20;;;18.80;99.90;;;;;;4438030;32;20076;-60
2023/09/24 11:08:10;;;;;;;0.43;0.43;;;18.80;99.90;;;;;;4438773;32;20155;-61
2023/09/24 11:10:36;;;;;;;0.28;0.28;;;18.80;99.90;;;;;;4437994;32;20149;-59
2023/09/24 11:13:03;;;;;;;0.30;0.30;;;18.90;99.90;;;;;;4439472;32;20081;-59
2023/09/24 11:15:33;;;;;;;0.30;0.30;;;18.90;99.90;;;;;;4438211;32;20108;-59
2023/09/24 11:17:59;;;;;;;0.20;0.20;;;19.30;99.90;;;;;;4437780;32;20061;-59
2023/09/24 11:20:28;;;;;;;0.28;0.28;;;19.30;99.90;;;;;;4424977;32;20101;-60
2023/09/24 11:23:05;;;;;;;0.30;0.30;;;19.60;99.90;;;;;;4437594;32;20065;-60
2023/09/24 11:25:31;;;;;;;0.28;0.28;;;20.20;99.90;;;;;;4437813;32;20080;-60
2023/09/24 11:27:59;;;;;;;0.32;0.32;;;20.60;99.90;;;;;;4437658;32;20085;-60
2023/09/24 11:30:38;;;;;;;0.90;0.32;;;20.80;99.90;;;;;;4435379;32;20503;-61
2023/09/24 11:33:14;;;;;;;0.10;0.10;;;20.40;99.90;;;;;;4436175;32;20085;-60
2023/09/24 11:35:40;;;;;;;0.20;0.20;;;20.00;99.90;;;;;;4436052;32;20069;-60
2023/09/24 11:38:06;;;;;;;0.20;0.20;;;19.80;99.90;;;;;;4436298;32;20443;-61
2023/09/24 11:40:34;;;;;;;0.30;0.30;;;19.90;99.90;;;;;;4434125;32;20100;-62
2023/09/24 11:43:02;;;;;;;3.58;1.67;;;19.70;99.90;;;;;;4435526;32;20109;-62
2023/09/24 11:45:46;;;;;;;0.20;0.20;;;19.30;99.90;;;;;;4436338;32;20065;-62
2023/09/24 11:48:14;;;;;;;0.20;0.20;;;18.90;99.90;;;;;;4433229;32;85978;-62
2023/09/24 11:50:42;;;;;;;0.30;0.30;;;18.90;99.90;;;;;;4435830;32;20085;-61
2023/09/24 11:53:08;;;;;;;0.40;0.37;;;18.80;99.90;;;;;;4436574;32;20143;-62
2023/09/24 11:55:34;;;;;;;0.25;0.20;;;19.30;99.90;;;;;;4436757;32;20069;-62
2023/09/24 11:58:00;;;;;;;0.28;0.28;;;20.00;99.90;;;;;;4436873;32;20156;-60
2023/09/24 12:00:25;;;;;;;0.20;0.20;;;20.90;99.90;;;;;;4434630;32;20077;-62
2023/09/24 12:02:51;;;;;;;0.20;0.20;;;21.50;99.90;;;;;;4436185;32;20072;-61
2023/09/24 12:05:16;;;;;;;0.25;0.25;;;22.30;99.90;;;;;;4436375;32;20456;-64
2023/09/24 12:07:42;;;;;;;0.10;0.10;;;22.60;99.90;;;;;;4438206;32;20173;-61
2023/09/24 12:10:08;;;;;;;0.00;0.00;;;23.20;98.10;;;;;;4436520;32;20085;-61
2023/09/24 12:12:34;;;;;;;0.25;0.25;;;23.80;97.60;;;;;;4424848;32;20101;-61
2023/09/24 12:15:00;;;;;;;0.05;0.05;;;23.80;98.80;;;;;;4436321;32;20151;-60
2023/09/24 12:17:25;;;;;;;0.00;0.00;;;24.00;98.70;;;;;;4437637;32;20085;-62
2023/09/24 12:19:52;;;;;;;0.10;0.10;;;24.40;98.10;;;;;;4439325;32;20085;-60
2023/09/24 12:22:18;;;;;;;0.10;0.10;;;24.70;97.30;;;;;;4437671;32;20068;-61
2023/09/24 12:24:43;;;;;;;0.00;0.00;;;24.70;95.40;;;;;;4434208;32;20072;-61
2023/09/24 12:27:10;;;;;;;0.10;0.10;;;24.90;94.50;;;;;;4436996;32;20562;-62
2023/09/24 12:29:36;;;;;;;0.20;0.20;;;25.40;92.60;;;;;;4435020;32;20096;-61
2023/09/24 12:32:01;;;;;;;0.10;0.10;;;25.60;93.50;;;;;;4436596;32;20113;-60
2023/09/24 12:34:27;;;;;;;8.15;0.80;;;25.70;93.30;;;;;;4437805;32;20108;-60
2023/09/24 12:36:54;;;;;;;0.10;0.10;;;26.10;93.10;;;;;;4436901;32;20544;-63
2023/09/24 12:39:20;;;;;;;0.25;0.25;;;26.40;92.90;;;;;;4436890;32;20562;-63
2023/09/24 12:41:47;;;;;;;0.08;0.05;;;26.50;92.10;;;;;;4435058;32;20088;-63
2023/09/24 12:44:12;;;;;;;0.10;0.10;;;26.40;92.80;;;;;;4438485;32;20068;-64
2023/09/24 12:46:38;;;;;;;2.25;1.08;;;26.70;93.30;;;;;;4439525;32;20081;-61
2023/09/24 12:49:03;;;;;;;0.10;0.10;;;27.10;91.60;;;;;;4440859;32;20069;-61